Historyczne dane pomiarowe

Dodano dane terminowe – wersja testowa.

Dane z okresu 1951-2019

Wersja bazy: 1.34 [2019-03-16, lista zmian], aktualizacja planowana na 2019-04-15

Dane meteo z obszaru Polski uzyskane na podstawie danych udostępnionych przez Instytut Meteorologii i Gospodarki Wodnej – Państwowy Instytut Badawczy.

 

Wybierz Datę:    

       

TemperaturaWilgotnośćWiatrCiśnienieOpadyŚniegCzas trwania zjawisk
 Stacja t tx tn tng RH VA  wxwx mslp ppp RRR   cm mm wxwxwxwxwxwxwx
1961-08-14 13.7 19.5 6.0 4.8 82.3- 5.0 2.3---- 0.0------------
1961-08-13 13.9 18.4 9.2 8.4 78.3- 4.0 3.0---- 0.0------------
1961-08-12 17.2 22.5 13.9 11.1 83.8- 6.7 1.3---- 0.0------------
1961-08-11 15.6 18.7 14.9 14.0 97.3- 5.3 1.0---- 7.0------------
1961-08-10 18.0 22.4 15.1 13.4 91.8- 7.7 3.3---- 7.6------------
1961-08-09 18.5 23.8 14.7 11.4 79.8- 4.0 2.0---- 0.0------------
1961-08-08 17.2 21.8 8.0 7.3 70.8- 4.3 3.7---- 0.4------------
1961-08-07 15.4 22.2 13.4 12.1 96.3- 6.7 1.3---- 5.2------------
1961-08-06 23.3 29.5 14.2 12.3 70.0- 3.3 5.0---- 0.6------------
1961-08-05 17.8 24.0 13.5 11.6 82.8- 3.7 3.3---- 0.0------------
1961-08-04 14.2 17.8 6.7 5.2 86.0- 7.3 5.7---- 2.2------------
1961-08-03 13.6 18.6 11.9 10.8 90.8- 5.0 2.0---- 0.1------------
1961-08-02 16.3 23.0 8.7 4.9 83.5- 5.0 3.0---- 3.7------------
1961-08-01 13.0 16.8 11.7 11.4 93.5- 5.3 4.7---- 1.0------------
1961-07-31 13.3 15.0 12.2 11.3 96.3- 8.0 7.0---- 61.2------------
1961-07-30 15.1 18.9 11.6 10.5 83.3- 7.0 3.0---- 3.1------------
1961-07-29 14.4 19.0 12.1 10.4 79.8- 6.3 3.3---- 0.0------------
1961-07-28 15.0 18.8 12.2 11.2 90.8- 7.3 3.3---- 9.2------------
1961-07-27 18.5 24.0 13.7 12.1 80.5- 6.7 4.0---- 1.0------------
1961-07-26 18.6 22.2 11.6 11.0 67.8- 7.7 4.7---- 2.1------------
1961-07-25 14.1 17.3 10.5 9.0 81.5- 7.7 3.7---- 1.2------------
1961-07-24 14.9 19.0 11.6 9.5 75.3- 5.3 4.7---- 0.0------------
1961-07-23 14.1 17.4 13.1 12.4 86.3- 6.7 4.0---- 0.0------------
1961-07-22 15.4 21.0 12.9 11.5 82.0- 7.3 3.0---- 1.2------------
1961-07-21 15.0 18.4 12.8 11.0 93.8- 7.7 3.3---- 9.6------------
1961-07-20 15.6 22.0 9.8 7.8 84.0- 4.3 2.0---- 4.9------------
1961-07-19 14.6 19.1 12.5 11.2 86.0- 5.7 2.7---- 0.0------------
1961-07-18 15.1 19.3 12.2 11.6 90.0- 7.0 3.3---- 2.8------------
1961-07-17 15.4 20.6 9.4 8.6 84.3- 5.3 1.7---- 31.4------------
1961-07-16 14.5 17.4 13.7 13.0 92.8- 6.3 1.3---- 10.7------------
1961-07-15 15.8 23.0 12.0 10.4 84.5- 5.0 1.0---- 12.1------------
1961-07-14 12.8 17.2 12.2 12.5 82.0- 6.0 6.0---- 0.1------------
1961-07-13 20.6 29.8 16.0 11.3 81.5- 6.7 5.0---- 11.1------------
1961-07-12 20.0 25.9 13.4 12.5 80.0- 5.0 1.7---- 0.0------------
1961-07-11 16.6 22.3 10.5 8.5 72.5- 5.7 3.0---- 14.3------------
1961-07-10 13.9 18.3 10.1 10.7 70.3- 7.0 4.0---- 0.6------------
1961-07-09 14.8 18.2 11.3 8.7 86.5- 6.3 4.3---- 1.2------------
1961-07-08 15.6 22.3 7.2 6.1 74.3- 6.0 3.7---- 0.0------------
1961-07-07 13.9 16.2 8.1 5.8 70.3- 6.7 3.7---- 0.0------------
1961-07-06 10.5 16.5 7.1 5.8 89.5- 6.3 4.7---- 1.9------------
1961-07-05 12.1 18.1 10.2 10.0 77.5- 5.0 5.7---- 0.0------------
1961-07-04 15.9 23.0 11.4 9.4 89.0- 7.0 4.0---- 2.8------------
1961-07-03 25.8 34.2 13.0 8.8 56.5- 2.7 5.3---- 1.0------------
1961-07-02 22.6 30.7 7.6 6.4 54.3- 0.0 2.3---- 0.0------------
1961-07-01 20.9 28.6 6.4 4.7 54.0- 0.3 1.7---- 0.0------------
1961-06-30 20.5 26.7 9.2 8.3 53.5- 0.0 4.7---- 0.0------------
1961-06-29 15.7 21.6 11.1 9.4 73.8- 2.7 3.7---- 0.0------------
1961-06-28 15.2 23.5 13.3 13.8 65.3- 3.0 6.0---- 0.0------------
1961-06-27 24.7 31.2 16.3 14.0 64.3- 6.0 5.3---- 0.0------------
1961-06-26 22.6 29.4 11.4 9.0 53.0- 0.7 2.3---- 0.0------------
1961-06-25 22.5 29.4 14.0 12.0 57.8- 3.7 3.3---- 0.0------------
1961-06-24 18.3 23.6 12.1 9.9 64.3- 4.7 6.3---- 0.0------------
1961-06-23 18.2 23.3 11.1 10.4 64.3- 3.0 4.0---- 0.0------------
1961-06-22 17.8 22.9 4.5 3.6 59.8- 3.0 3.0---- 0.0------------
1961-06-21 15.0 22.4 6.9 5.7 69.5- 4.7 2.7---- 1.4------------
1961-06-20 13.5 19.9 9.2 4.7 65.8- 1.7 3.3---- 0.0------------
1961-06-19 16.0 23.0 14.5 14.3 60.8- 4.3 5.0---- 0.0------------
1961-06-18 22.6 28.1 14.5 12.8 57.8- 5.0 6.3---- 0.0------------
1961-06-17 17.9 23.1 7.6 6.3 70.5- 4.0 2.7---- 0.0------------
1961-06-16 12.3 17.3 11.1 10.4 86.3- 5.3 3.7---- 0.0------------
342.3 ms

 

Źródłem pochodzenia danych jest Instytut Meteorologii i Gospodarki Wodnej – Państwowy Instytut Badawczy. Dane Instytutu Meteorologii i Gospodarki Wodnej – Państwowego Instytutu Badawczego zostały przetworzone.

Dane źródłowe można odnaleźć na stronie https://dane.imgw.pl